sensor_id;sensor_type;location;lat;lon;timestamp;temperature;humidity
62853;DHT22;49205;44.868;38.140;2022-12-10T00:01:51;10.90;94.40
62853;DHT22;49205;44.868;38.140;2022-12-10T00:04:20;10.90;94.40
62853;DHT22;49205;44.868;38.140;2022-12-10T00:06:49;10.90;94.40
62853;DHT22;49205;44.868;38.140;2022-12-10T00:09:20;10.80;94.40
62853;DHT22;49205;44.868;38.140;2022-12-10T00:11:49;10.80;94.40
62853;DHT22;49205;44.868;38.140;2022-12-10T00:14:19;10.80;94.40
62853;DHT22;49205;44.868;38.140;2022-12-10T00:16:48;10.80;94.40
62853;DHT22;49205;44.868;38.140;2022-12-10T00:19:17;10.80;94.40
62853;DHT22;49205;44.868;38.140;2022-12-10T00:21:46;10.70;94.40
62853;DHT22;49205;44.868;38.140;2022-12-10T00:24:16;10.70;94.50
62853;DHT22;49205;44.868;38.140;2022-12-10T00:26:45;10.70;94.50
62853;DHT22;49205;44.868;38.140;2022-12-10T00:29:14;10.70;94.60
62853;DHT22;49205;44.868;38.140;2022-12-10T00:31:43;10.60;94.50
62853;DHT22;49205;44.868;38.140;2022-12-10T00:34:13;10.60;94.60
62853;DHT22;49205;44.868;38.140;2022-12-10T00:36:47;10.60;94.60
62853;DHT22;49205;44.868;38.140;2022-12-10T00:39:18;10.50;94.60
62853;DHT22;49205;44.868;38.140;2022-12-10T00:41:48;10.50;94.60
62853;DHT22;49205;44.868;38.140;2022-12-10T00:44:17;10.50;94.60
62853;DHT22;49205;44.868;38.140;2022-12-10T00:46:47;10.40;94.70
62853;DHT22;49205;44.868;38.140;2022-12-10T00:49:16;10.40;94.70
62853;DHT22;49205;44.868;38.140;2022-12-10T00:51:45;10.40;94.70
62853;DHT22;49205;44.868;38.140;2022-12-10T00:54:14;10.30;94.60
62853;DHT22;49205;44.868;38.140;2022-12-10T00:56:43;10.20;94.60
62853;DHT22;49205;44.868;38.140;2022-12-10T00:59:12;10.10;94.60
62853;DHT22;49205;44.868;38.140;2022-12-10T01:01:42;10.10;94.80
62853;DHT22;49205;44.868;38.140;2022-12-10T01:04:14;10.00;94.90
62853;DHT22;49205;44.868;38.140;2022-12-10T01:06:45;10.10;95.00
62853;DHT22;49205;44.868;38.140;2022-12-10T01:09:17;10.10;95.10
62853;DHT22;49205;44.868;38.140;2022-12-10T01:11:47;10.10;95.10
62853;DHT22;49205;44.868;38.140;2022-12-10T01:14:22;10.10;95.10
62853;DHT22;49205;44.868;38.140;2022-12-10T01:16:53;10.10;95.00
62853;DHT22;49205;44.868;38.140;2022-12-10T01:19:21;10.10;95.00
62853;DHT22;49205;44.868;38.140;2022-12-10T01:21:52;10.00;95.00
62853;DHT22;49205;44.868;38.140;2022-12-10T01:24:23;10.00;95.10
62853;DHT22;49205;44.868;38.140;2022-12-10T01:26:52;10.00;95.10
62853;DHT22;49205;44.868;38.140;2022-12-10T01:29:23;10.00;95.20
62853;DHT22;49205;44.868;38.140;2022-12-10T01:31:53;10.00;95.20
62853;DHT22;49205;44.868;38.140;2022-12-10T01:34:23;10.00;95.10
62853;DHT22;49205;44.868;38.140;2022-12-10T01:36:54;10.00;95.30
62853;DHT22;49205;44.868;38.140;2022-12-10T01:39:24;9.90;95.10
62853;DHT22;49205;44.868;38.140;2022-12-10T01:41:55;9.90;95.10
62853;DHT22;49205;44.868;38.140;2022-12-10T01:46:58;10.00;95.40
62853;DHT22;49205;44.868;38.140;2022-12-10T01:49:37;10.00;95.30
62853;DHT22;49205;44.868;38.140;2022-12-10T01:52:08;10.10;95.30
62853;DHT22;49205;44.868;38.140;2022-12-10T01:54:40;10.10;95.40
62853;DHT22;49205;44.868;38.140;2022-12-10T01:57:17;10.20;95.30
62853;DHT22;49205;44.868;38.140;2022-12-10T01:59:48;10.30;95.20
62853;DHT22;49205;44.868;38.140;2022-12-10T02:02:31;10.30;95.20
62853;DHT22;49205;44.868;38.140;2022-12-10T02:05:02;10.30;95.20
62853;DHT22;49205;44.868;38.140;2022-12-10T02:13:11;10.20;95.20
62853;DHT22;49205;44.868;38.140;2022-12-10T02:15:59;10.30;95.30
62853;DHT22;49205;44.868;38.140;2022-12-10T02:18:29;10.30;95.20
62853;DHT22;49205;44.868;38.140;2022-12-10T02:21:00;10.30;95.20
62853;DHT22;49205;44.868;38.140;2022-12-10T02:23:35;10.30;95.20
62853;DHT22;49205;44.868;38.140;2022-12-10T02:29:15;10.30;95.20
62853;DHT22;49205;44.868;38.140;2022-12-10T02:31:47;10.30;95.20
62853;DHT22;49205;44.868;38.140;2022-12-10T02:34:18;10.30;95.10
62853;DHT22;49205;44.868;38.140;2022-12-10T02:36:50;10.30;95.20
62853;DHT22;49205;44.868;38.140;2022-12-10T02:39:24;10.30;95.10
62853;DHT22;49205;44.868;38.140;2022-12-10T02:41:55;10.30;95.10
62853;DHT22;49205;44.868;38.140;2022-12-10T02:44:27;10.30;95.10
62853;DHT22;49205;44.868;38.140;2022-12-10T02:46:58;10.30;95.10
62853;DHT22;49205;44.868;38.140;2022-12-10T02:49:30;10.30;95.20
62853;DHT22;49205;44.868;38.140;2022-12-10T02:52:06;10.30;95.20
62853;DHT22;49205;44.868;38.140;2022-12-10T02:54:42;10.30;95.20
62853;DHT22;49205;44.868;38.140;2022-12-10T03:00:18;10.30;95.10
62853;DHT22;49205;44.868;38.140;2022-12-10T03:05:47;10.50;95.10
62853;DHT22;49205;44.868;38.140;2022-12-10T03:08:32;10.60;95.00
62853;DHT22;49205;44.868;38.140;2022-12-10T03:16:29;10.60;94.80
62853;DHT22;49205;44.868;38.140;2022-12-10T03:19:01;10.50;94.80
62853;DHT22;49205;44.868;38.140;2022-12-10T03:21:30;10.50;95.00
62853;DHT22;49205;44.868;38.140;2022-12-10T03:24:03;10.40;94.80
62853;DHT22;49205;44.868;38.140;2022-12-10T03:26:32;10.40;94.80
62853;DHT22;49205;44.868;38.140;2022-12-10T03:29:05;10.40;94.80
62853;DHT22;49205;44.868;38.140;2022-12-10T03:31:34;10.30;94.80
62853;DHT22;49205;44.868;38.140;2022-12-10T03:34:05;10.30;94.90
62853;DHT22;49205;44.868;38.140;2022-12-10T03:36:34;10.30;94.90
62853;DHT22;49205;44.868;38.140;2022-12-10T03:39:04;10.30;94.90
62853;DHT22;49205;44.868;38.140;2022-12-10T03:41:33;10.20;94.90
62853;DHT22;49205;44.868;38.140;2022-12-10T03:44:03;10.20;94.90
62853;DHT22;49205;44.868;38.140;2022-12-10T03:46:32;10.20;94.90
62853;DHT22;49205;44.868;38.140;2022-12-10T03:49:02;10.20;94.90
62853;DHT22;49205;44.868;38.140;2022-12-10T03:51:32;10.20;95.00
62853;DHT22;49205;44.868;38.140;2022-12-10T03:54:01;10.20;94.90
62853;DHT22;49205;44.868;38.140;2022-12-10T03:56:31;10.10;94.80
62853;DHT22;49205;44.868;38.140;2022-12-10T03:59:00;10.10;94.90
62853;DHT22;49205;44.868;38.140;2022-12-10T04:01:29;10.10;95.00
62853;DHT22;49205;44.868;38.140;2022-12-10T04:03:58;10.10;95.00
62853;DHT22;49205;44.868;38.140;2022-12-10T04:06:28;10.00;95.10
62853;DHT22;49205;44.868;38.140;2022-12-10T04:08:57;10.00;95.00
62853;DHT22;49205;44.868;38.140;2022-12-10T04:11:26;10.00;94.80
62853;DHT22;49205;44.868;38.140;2022-12-10T04:13:57;10.00;95.00
62853;DHT22;49205;44.868;38.140;2022-12-10T04:16:44;9.90;95.10
62853;DHT22;49205;44.868;38.140;2022-12-10T04:19:15;9.90;95.20
62853;DHT22;49205;44.868;38.140;2022-12-10T04:21:46;9.90;95.10
62853;DHT22;49205;44.868;38.140;2022-12-10T04:24:35;9.90;95.10
62853;DHT22;49205;44.868;38.140;2022-12-10T04:27:32;9.80;95.10
62853;DHT22;49205;44.868;38.140;2022-12-10T04:29:57;9.80;95.20
62853;DHT22;49205;44.868;38.140;2022-12-10T04:32:28;9.70;95.20
62853;DHT22;49205;44.868;38.140;2022-12-10T04:34:58;9.70;95.30
62853;DHT22;49205;44.868;38.140;2022-12-10T04:37:28;9.70;95.30
62853;DHT22;49205;44.868;38.140;2022-12-10T04:39:57;9.70;95.30
62853;DHT22;49205;44.868;38.140;2022-12-10T04:42:27;9.60;95.30
62853;DHT22;49205;44.868;38.140;2022-12-10T04:44:56;9.60;95.30
62853;DHT22;49205;44.868;38.140;2022-12-10T04:47:26;9.60;95.30
62853;DHT22;49205;44.868;38.140;2022-12-10T04:49:55;9.50;95.20
62853;DHT22;49205;44.868;38.140;2022-12-10T04:52:24;9.50;95.30
62853;DHT22;49205;44.868;38.140;2022-12-10T04:54:53;9.40;95.30
62853;DHT22;49205;44.868;38.140;2022-12-10T04:57:22;9.40;95.30
62853;DHT22;49205;44.868;38.140;2022-12-10T04:59:51;9.30;95.40
62853;DHT22;49205;44.868;38.140;2022-12-10T05:02:21;9.30;95.30
62853;DHT22;49205;44.868;38.140;2022-12-10T05:04:50;9.30;95.30
62853;DHT22;49205;44.868;38.140;2022-12-10T05:07:19;9.30;95.40
62853;DHT22;49205;44.868;38.140;2022-12-10T05:09:48;9.20;95.30
62853;DHT22;49205;44.868;38.140;2022-12-10T05:12:36;9.20;95.50
62853;DHT22;49205;44.868;38.140;2022-12-10T05:15:06;9.20;95.20
62853;DHT22;49205;44.868;38.140;2022-12-10T05:17:37;9.20;95.40
62853;DHT22;49205;44.868;38.140;2022-12-10T05:20:06;9.20;95.50
62853;DHT22;49205;44.868;38.140;2022-12-10T05:22:36;9.20;95.60
62853;DHT22;49205;44.868;38.140;2022-12-10T05:25:23;9.20;95.50
62853;DHT22;49205;44.868;38.140;2022-12-10T05:27:52;9.20;95.50
62853;DHT22;49205;44.868;38.140;2022-12-10T05:30:21;9.30;95.50
62853;DHT22;49205;44.868;38.140;2022-12-10T05:32:51;9.20;95.50
62853;DHT22;49205;44.868;38.140;2022-12-10T05:35:20;9.30;95.60
62853;DHT22;49205;44.868;38.140;2022-12-10T05:37:50;9.30;95.70
62853;DHT22;49205;44.868;38.140;2022-12-10T05:40:19;9.40;95.80
62853;DHT22;49205;44.868;38.140;2022-12-10T05:42:48;9.50;95.80
62853;DHT22;49205;44.868;38.140;2022-12-10T05:45:18;9.50;95.80
62853;DHT22;49205;44.868;38.140;2022-12-10T05:47:47;9.60;95.70
62853;DHT22;49205;44.868;38.140;2022-12-10T05:50:16;9.60;95.70
62853;DHT22;49205;44.868;38.140;2022-12-10T05:52:45;9.70;95.60
62853;DHT22;49205;44.868;38.140;2022-12-10T05:55:14;9.80;95.60
62853;DHT22;49205;44.868;38.140;2022-12-10T05:57:44;9.80;95.60
62853;DHT22;49205;44.868;38.140;2022-12-10T06:00:13;9.90;95.60
62853;DHT22;49205;44.868;38.140;2022-12-10T06:02:43;10.00;95.60
62853;DHT22;49205;44.868;38.140;2022-12-10T06:05:12;10.00;95.50
62853;DHT22;49205;44.868;38.140;2022-12-10T06:07:41;10.00;95.50
62853;DHT22;49205;44.868;38.140;2022-12-10T06:10:11;10.10;95.50
62853;DHT22;49205;44.868;38.140;2022-12-10T06:12:40;10.20;95.50
62853;DHT22;49205;44.868;38.140;2022-12-10T06:15:10;10.30;95.50
62853;DHT22;49205;44.868;38.140;2022-12-10T06:17:39;10.30;95.40
62853;DHT22;49205;44.868;38.140;2022-12-10T06:20:10;10.40;95.40
62853;DHT22;49205;44.868;38.140;2022-12-10T06:22:39;10.40;95.40
62853;DHT22;49205;44.868;38.140;2022-12-10T06:25:08;10.50;95.40
62853;DHT22;49205;44.868;38.140;2022-12-10T06:27:38;10.60;95.30
62853;DHT22;49205;44.868;38.140;2022-12-10T06:30:08;10.60;95.60
62853;DHT22;49205;44.868;38.140;2022-12-10T06:32:37;10.70;95.30
62853;DHT22;49205;44.868;38.140;2022-12-10T06:35:07;10.70;95.30
62853;DHT22;49205;44.868;38.140;2022-12-10T06:37:36;10.80;95.30
62853;DHT22;49205;44.868;38.140;2022-12-10T06:40:06;10.80;95.20
62853;DHT22;49205;44.868;38.140;2022-12-10T06:42:36;10.90;95.10
62853;DHT22;49205;44.868;38.140;2022-12-10T06:45:06;11.00;95.10
62853;DHT22;49205;44.868;38.140;2022-12-10T06:47:35;11.10;95.00
62853;DHT22;49205;44.868;38.140;2022-12-10T06:50:05;11.20;94.60
62853;DHT22;49205;44.868;38.140;2022-12-10T06:52:34;11.20;94.70
62853;DHT22;49205;44.868;38.140;2022-12-10T06:55:04;11.30;94.70
62853;DHT22;49205;44.868;38.140;2022-12-10T06:57:33;11.40;94.60
62853;DHT22;49205;44.868;38.140;2022-12-10T07:00:03;11.40;94.60
62853;DHT22;49205;44.868;38.140;2022-12-10T07:02:32;11.50;94.30
62853;DHT22;49205;44.868;38.140;2022-12-10T07:05:02;11.50;93.70
62853;DHT22;49205;44.868;38.140;2022-12-10T07:07:31;11.60;94.10
62853;DHT22;49205;44.868;38.140;2022-12-10T07:10:01;11.70;93.80
62853;DHT22;49205;44.868;38.140;2022-12-10T07:12:30;11.80;93.50
62853;DHT22;49205;44.868;38.140;2022-12-10T07:14:59;11.80;93.60
62853;DHT22;49205;44.868;38.140;2022-12-10T07:17:29;11.90;93.70
62853;DHT22;49205;44.868;38.140;2022-12-10T07:19:58;12.00;93.60
62853;DHT22;49205;44.868;38.140;2022-12-10T07:22:27;12.00;93.30
62853;DHT22;49205;44.868;38.140;2022-12-10T07:24:57;12.10;93.40
62853;DHT22;49205;44.868;38.140;2022-12-10T07:27:26;12.20;93.20
62853;DHT22;49205;44.868;38.140;2022-12-10T07:29:55;12.30;93.10
62853;DHT22;49205;44.868;38.140;2022-12-10T07:32:26;12.30;93.00
62853;DHT22;49205;44.868;38.140;2022-12-10T07:34:55;12.30;92.40
62853;DHT22;49205;44.868;38.140;2022-12-10T07:37:24;12.40;91.90
62853;DHT22;49205;44.868;38.140;2022-12-10T07:39:54;12.50;91.60
62853;DHT22;49205;44.868;38.140;2022-12-10T07:42:23;12.60;91.70
62853;DHT22;49205;44.868;38.140;2022-12-10T07:44:52;12.70;91.90
62853;DHT22;49205;44.868;38.140;2022-12-10T07:47:22;12.70;91.90
62853;DHT22;49205;44.868;38.140;2022-12-10T07:49:51;12.70;91.20
62853;DHT22;49205;44.868;38.140;2022-12-10T07:52:20;12.80;91.40
62853;DHT22;49205;44.868;38.140;2022-12-10T07:54:49;12.80;91.30
62853;DHT22;49205;44.868;38.140;2022-12-10T07:57:19;12.90;90.80
62853;DHT22;49205;44.868;38.140;2022-12-10T07:59:48;12.90;90.90
62853;DHT22;49205;44.868;38.140;2022-12-10T08:02:17;12.90;90.80
62853;DHT22;49205;44.868;38.140;2022-12-10T08:04:46;13.00;91.00
62853;DHT22;49205;44.868;38.140;2022-12-10T08:07:16;13.00;90.80
62853;DHT22;49205;44.868;38.140;2022-12-10T08:09:45;13.10;90.00
62853;DHT22;49205;44.868;38.140;2022-12-10T08:12:14;13.10;90.10
62853;DHT22;49205;44.868;38.140;2022-12-10T08:14:43;13.20;90.20
62853;DHT22;49205;44.868;38.140;2022-12-10T08:17:12;13.20;89.00
62853;DHT22;49205;44.868;38.140;2022-12-10T08:19:41;13.30;90.10
62853;DHT22;49205;44.868;38.140;2022-12-10T08:22:10;13.30;89.40
62853;DHT22;49205;44.868;38.140;2022-12-10T08:24:40;13.40;88.40
62853;DHT22;49205;44.868;38.140;2022-12-10T08:27:09;13.40;87.50
62853;DHT22;49205;44.868;38.140;2022-12-10T08:29:38;13.50;88.50
62853;DHT22;49205;44.868;38.140;2022-12-10T08:32:07;13.50;87.20
62853;DHT22;49205;44.868;38.140;2022-12-10T08:34:37;13.50;86.30
62853;DHT22;49205;44.868;38.140;2022-12-10T08:37:09;13.60;86.20
62853;DHT22;49205;44.868;38.140;2022-12-10T08:39:38;13.60;86.20
62853;DHT22;49205;44.868;38.140;2022-12-10T08:42:08;13.70;86.60
62853;DHT22;49205;44.868;38.140;2022-12-10T08:44:37;13.70;86.60
62853;DHT22;49205;44.868;38.140;2022-12-10T08:47:06;13.70;86.50
62853;DHT22;49205;44.868;38.140;2022-12-10T08:49:36;13.80;86.10
62853;DHT22;49205;44.868;38.140;2022-12-10T08:52:06;13.80;85.70
62853;DHT22;49205;44.868;38.140;2022-12-10T08:54:35;13.80;86.10
62853;DHT22;49205;44.868;38.140;2022-12-10T08:57:04;13.90;85.50
62853;DHT22;49205;44.868;38.140;2022-12-10T08:59:33;13.90;85.30
62853;DHT22;49205;44.868;38.140;2022-12-10T09:02:03;13.90;85.50
62853;DHT22;49205;44.868;38.140;2022-12-10T09:04:32;14.00;84.60
62853;DHT22;49205;44.868;38.140;2022-12-10T09:07:02;14.00;83.80
62853;DHT22;49205;44.868;38.140;2022-12-10T09:09:32;14.00;84.60
62853;DHT22;49205;44.868;38.140;2022-12-10T09:12:01;14.00;83.40
62853;DHT22;49205;44.868;38.140;2022-12-10T09:14:31;14.10;84.10
62853;DHT22;49205;44.868;38.140;2022-12-10T09:17:06;14.10;84.10
62853;DHT22;49205;44.868;38.140;2022-12-10T09:19:32;14.10;84.10
62853;DHT22;49205;44.868;38.140;2022-12-10T09:22:01;14.10;84.40
62853;DHT22;49205;44.868;38.140;2022-12-10T09:24:30;14.10;84.00
62853;DHT22;49205;44.868;38.140;2022-12-10T09:27:00;14.10;82.30
62853;DHT22;49205;44.868;38.140;2022-12-10T09:29:29;14.10;83.10
62853;DHT22;49205;44.868;38.140;2022-12-10T09:31:59;14.10;82.30
62853;DHT22;49205;44.868;38.140;2022-12-10T09:34:28;14.10;82.30
62853;DHT22;49205;44.868;38.140;2022-12-10T09:36:57;14.10;82.10
62853;DHT22;49205;44.868;38.140;2022-12-10T09:39:26;14.10;81.60
62853;DHT22;49205;44.868;38.140;2022-12-10T09:42:10;14.20;81.80
62853;DHT22;49205;44.868;38.140;2022-12-10T09:44:42;14.20;81.30
62853;DHT22;49205;44.868;38.140;2022-12-10T09:47:11;14.20;81.00
62853;DHT22;49205;44.868;38.140;2022-12-10T09:52:33;14.30;80.40
62853;DHT22;49205;44.868;38.140;2022-12-10T09:55:04;14.30;81.50
62853;DHT22;49205;44.868;38.140;2022-12-10T09:57:42;14.30;81.60
62853;DHT22;49205;44.868;38.140;2022-12-10T10:02:54;14.20;79.60
62853;DHT22;49205;44.868;38.140;2022-12-10T10:05:28;14.20;76.70
62853;DHT22;49205;44.868;38.140;2022-12-10T10:08:01;14.20;81.40
62853;DHT22;49205;44.868;38.140;2022-12-10T10:10:38;14.20;80.10
62853;DHT22;49205;44.868;38.140;2022-12-10T10:15:41;14.30;80.40
62853;DHT22;49205;44.868;38.140;2022-12-10T10:18:21;14.30;79.70
62853;DHT22;49205;44.868;38.140;2022-12-10T10:20:49;14.30;79.80
62853;DHT22;49205;44.868;38.140;2022-12-10T10:23:18;14.30;79.70
62853;DHT22;49205;44.868;38.140;2022-12-10T10:25:48;14.30;80.30
62853;DHT22;49205;44.868;38.140;2022-12-10T10:28:19;14.30;79.80
62853;DHT22;49205;44.868;38.140;2022-12-10T10:30:51;14.30;79.50
62853;DHT22;49205;44.868;38.140;2022-12-10T10:33:21;14.20;80.40
62853;DHT22;49205;44.868;38.140;2022-12-10T10:35:55;14.30;79.70
62853;DHT22;49205;44.868;38.140;2022-12-10T10:38:29;14.40;79.10
62853;DHT22;49205;44.868;38.140;2022-12-10T10:41:01;14.40;79.50
62853;DHT22;49205;44.868;38.140;2022-12-10T10:43:39;14.40;79.50
62853;DHT22;49205;44.868;38.140;2022-12-10T10:46:22;14.40;79.40
62853;DHT22;49205;44.868;38.140;2022-12-10T10:48:52;14.50;79.00
62853;DHT22;49205;44.868;38.140;2022-12-10T10:51:22;14.50;79.00
62853;DHT22;49205;44.868;38.140;2022-12-10T10:53:53;14.50;79.20
62853;DHT22;49205;44.868;38.140;2022-12-10T10:56:31;14.50;79.80
62853;DHT22;49205;44.868;38.140;2022-12-10T10:59:03;14.50;79.30
62853;DHT22;49205;44.868;38.140;2022-12-10T11:01:52;14.50;79.50
62853;DHT22;49205;44.868;38.140;2022-12-10T11:04:27;14.50;79.70
62853;DHT22;49205;44.868;38.140;2022-12-10T11:06:55;14.60;79.50
62853;DHT22;49205;44.868;38.140;2022-12-10T11:09:28;14.60;78.70
62853;DHT22;49205;44.868;38.140;2022-12-10T11:12:05;14.60;79.40
62853;DHT22;49205;44.868;38.140;2022-12-10T11:14:38;14.60;78.90
62853;DHT22;49205;44.868;38.140;2022-12-10T11:22:34;14.60;79.10
62853;DHT22;49205;44.868;38.140;2022-12-10T11:25:05;14.60;78.90
62853;DHT22;49205;44.868;38.140;2022-12-10T11:30:31;14.70;79.10
62853;DHT22;49205;44.868;38.140;2022-12-10T11:33:20;14.70;78.60
62853;DHT22;49205;44.868;38.140;2022-12-10T11:36:10;14.70;78.70
62853;DHT22;49205;44.868;38.140;2022-12-10T11:49:28;14.60;77.30
62853;DHT22;49205;44.868;38.140;2022-12-10T11:52:06;14.70;76.80
62853;DHT22;49205;44.868;38.140;2022-12-10T11:54:38;14.70;77.20
62853;DHT22;49205;44.868;38.140;2022-12-10T11:57:16;14.70;76.70
62853;DHT22;49205;44.868;38.140;2022-12-10T12:08:38;14.70;76.20
62853;DHT22;49205;44.868;38.140;2022-12-10T12:11:13;14.70;76.60
62853;DHT22;49205;44.868;38.140;2022-12-10T12:14:12;14.70;75.50
62853;DHT22;49205;44.868;38.140;2022-12-10T12:16:40;14.60;76.10
62853;DHT22;49205;44.868;38.140;2022-12-10T12:19:28;14.60;75.60
62853;DHT22;49205;44.868;38.140;2022-12-10T12:21:52;14.50;75.70
62853;DHT22;49205;44.868;38.140;2022-12-10T12:24:28;14.50;76.10
62853;DHT22;49205;44.868;38.140;2022-12-10T12:27:09;14.50;76.40
62853;DHT22;49205;44.868;38.140;2022-12-10T12:29:45;14.40;76.00
62853;DHT22;49205;44.868;38.140;2022-12-10T12:32:23;14.40;76.10
62853;DHT22;49205;44.868;38.140;2022-12-10T12:37:28;14.30;76.40
62853;DHT22;49205;44.868;38.140;2022-12-10T12:42:48;14.10;76.70
62853;DHT22;49205;44.868;38.140;2022-12-10T12:45:38;14.10;76.70
62853;DHT22;49205;44.868;38.140;2022-12-10T12:48:32;14.00;76.70
62853;DHT22;49205;44.868;38.140;2022-12-10T12:51:13;14.00;76.90
62853;DHT22;49205;44.868;38.140;2022-12-10T12:53:37;13.90;77.10
62853;DHT22;49205;44.868;38.140;2022-12-10T12:59:33;13.80;77.10
62853;DHT22;49205;44.868;38.140;2022-12-10T13:01:50;13.80;77.30
62853;DHT22;49205;44.868;38.140;2022-12-10T13:04:19;13.80;77.20
62853;DHT22;49205;44.868;38.140;2022-12-10T13:07:26;13.70;77.20
62853;DHT22;49205;44.868;38.140;2022-12-10T13:09:51;13.70;76.90
62853;DHT22;49205;44.868;38.140;2022-12-10T13:15:33;13.60;76.20
62853;DHT22;49205;44.868;38.140;2022-12-10T13:24:06;13.60;76.20
62853;DHT22;49205;44.868;38.140;2022-12-10T13:26:36;13.50;76.60
62853;DHT22;49205;44.868;38.140;2022-12-10T13:29:25;13.50;76.70
62853;DHT22;49205;44.868;38.140;2022-12-10T13:32:04;13.50;76.20
62853;DHT22;49205;44.868;38.140;2022-12-10T13:34:36;13.40;76.50
62853;DHT22;49205;44.868;38.140;2022-12-10T13:40:00;13.40;77.00
62853;DHT22;49205;44.868;38.140;2022-12-10T13:42:31;13.40;76.60
62853;DHT22;49205;44.868;38.140;2022-12-10T13:47:53;13.30;77.20
62853;DHT22;49205;44.868;38.140;2022-12-10T13:50:30;13.30;76.90
62853;DHT22;49205;44.868;38.140;2022-12-10T13:58:26;13.20;77.80
62853;DHT22;49205;44.868;38.140;2022-12-10T14:01:16;13.20;77.50
62853;DHT22;49205;44.868;38.140;2022-12-10T14:06:32;13.10;78.30
62853;DHT22;49205;44.868;38.140;2022-12-10T14:09:05;13.10;78.30
62853;DHT22;49205;44.868;38.140;2022-12-10T14:11:38;13.10;78.30
62853;DHT22;49205;44.868;38.140;2022-12-10T14:14:11;13.10;78.50
62853;DHT22;49205;44.868;38.140;2022-12-10T14:16:41;13.10;78.60
62853;DHT22;49205;44.868;38.140;2022-12-10T14:19:12;13.00;78.50
62853;DHT22;49205;44.868;38.140;2022-12-10T14:21:43;13.00;78.60
62853;DHT22;49205;44.868;38.140;2022-12-10T14:24:34;13.00;78.60
62853;DHT22;49205;44.868;38.140;2022-12-10T14:27:23;13.00;78.70
62853;DHT22;49205;44.868;38.140;2022-12-10T14:29:49;13.00;78.80
62853;DHT22;49205;44.868;38.140;2022-12-10T14:32:23;13.00;78.60
62853;DHT22;49205;44.868;38.140;2022-12-10T14:34:58;13.00;78.70
62853;DHT22;49205;44.868;38.140;2022-12-10T14:37:25;13.00;79.60
62853;DHT22;49205;44.868;38.140;2022-12-10T14:39:54;13.00;78.90
62853;DHT22;49205;44.868;38.140;2022-12-10T14:42:24;13.00;78.70
62853;DHT22;49205;44.868;38.140;2022-12-10T14:45:02;13.00;79.10
62853;DHT22;49205;44.868;38.140;2022-12-10T14:47:38;13.00;78.90
62853;DHT22;49205;44.868;38.140;2022-12-10T14:50:12;13.00;79.00
62853;DHT22;49205;44.868;38.140;2022-12-10T14:52:43;13.10;78.80
62853;DHT22;49205;44.868;38.140;2022-12-10T14:55:14;13.10;79.00
62853;DHT22;49205;44.868;38.140;2022-12-10T14:57:49;13.10;79.00
62853;DHT22;49205;44.868;38.140;2022-12-10T15:00:20;13.00;79.10
62853;DHT22;49205;44.868;38.140;2022-12-10T15:02:56;13.00;78.80
62853;DHT22;49205;44.868;38.140;2022-12-10T15:05:32;13.00;78.80
62853;DHT22;49205;44.868;38.140;2022-12-10T15:08:04;13.00;79.00
62853;DHT22;49205;44.868;38.140;2022-12-10T15:10:38;13.00;78.90
62853;DHT22;49205;44.868;38.140;2022-12-10T15:13:17;13.00;79.00
62853;DHT22;49205;44.868;38.140;2022-12-10T15:15:39;13.00;79.00
62853;DHT22;49205;44.868;38.140;2022-12-10T15:18:12;13.00;78.80
62853;DHT22;49205;44.868;38.140;2022-12-10T15:20:46;13.00;79.10
62853;DHT22;49205;44.868;38.140;2022-12-10T15:23:32;13.00;78.90
62853;DHT22;49205;44.868;38.140;2022-12-10T15:26:04;13.00;79.20
62853;DHT22;49205;44.868;38.140;2022-12-10T15:28:37;13.00;79.20
62853;DHT22;49205;44.868;38.140;2022-12-10T15:34:01;12.90;79.20
62853;DHT22;49205;44.868;38.140;2022-12-10T15:36:41;12.90;79.40
62853;DHT22;49205;44.868;38.140;2022-12-10T15:39:16;12.90;79.40
62853;DHT22;49205;44.868;38.140;2022-12-10T15:41:48;12.90;80.10
62853;DHT22;49205;44.868;38.140;2022-12-10T15:47:21;12.90;80.20
62853;DHT22;49205;44.868;38.140;2022-12-10T15:49:52;12.90;79.70
62853;DHT22;49205;44.868;38.140;2022-12-10T15:52:24;12.90;79.90
62853;DHT22;49205;44.868;38.140;2022-12-10T15:54:55;12.90;80.00
62853;DHT22;49205;44.868;38.140;2022-12-10T15:57:32;12.90;80.10
62853;DHT22;49205;44.868;38.140;2022-12-10T16:00:11;12.80;80.20
62853;DHT22;49205;44.868;38.140;2022-12-10T16:02:43;12.80;80.40
62853;DHT22;49205;44.868;38.140;2022-12-10T16:05:28;12.70;80.70
62853;DHT22;49205;44.868;38.140;2022-12-10T16:08:12;12.70;81.00
62853;DHT22;49205;44.868;38.140;2022-12-10T16:10:42;12.60;81.10
62853;DHT22;49205;44.868;38.140;2022-12-10T16:13:26;12.60;81.50
62853;DHT22;49205;44.868;38.140;2022-12-10T16:16:00;12.60;82.00
62853;DHT22;49205;44.868;38.140;2022-12-10T16:18:31;12.50;82.10
62853;DHT22;49205;44.868;38.140;2022-12-10T16:21:00;12.50;82.00
62853;DHT22;49205;44.868;38.140;2022-12-10T16:23:29;12.50;82.00
62853;DHT22;49205;44.868;38.140;2022-12-10T16:25:59;12.50;82.40
62853;DHT22;49205;44.868;38.140;2022-12-10T16:28:28;12.40;82.60
62853;DHT22;49205;44.868;38.140;2022-12-10T16:30:58;12.40;82.70
62853;DHT22;49205;44.868;38.140;2022-12-10T16:33:28;12.40;82.80
62853;DHT22;49205;44.868;38.140;2022-12-10T16:35:57;12.30;83.10
62853;DHT22;49205;44.868;38.140;2022-12-10T16:38:26;12.30;83.40
62853;DHT22;49205;44.868;38.140;2022-12-10T16:40:56;12.30;83.50
62853;DHT22;49205;44.868;38.140;2022-12-10T16:43:26;12.20;83.50
62853;DHT22;49205;44.868;38.140;2022-12-10T16:46:00;12.20;83.40
62853;DHT22;49205;44.868;38.140;2022-12-10T16:48:29;12.20;83.40
62853;DHT22;49205;44.868;38.140;2022-12-10T16:50:59;12.20;83.40
62853;DHT22;49205;44.868;38.140;2022-12-10T16:53:29;12.20;83.30
62853;DHT22;49205;44.868;38.140;2022-12-10T16:56:00;12.20;83.20
62853;DHT22;49205;44.868;38.140;2022-12-10T16:58:29;12.20;83.30
62853;DHT22;49205;44.868;38.140;2022-12-10T17:00:58;12.20;83.40
62853;DHT22;49205;44.868;38.140;2022-12-10T17:03:29;12.20;83.60
62853;DHT22;49205;44.868;38.140;2022-12-10T17:06:01;12.20;83.70
62853;DHT22;49205;44.868;38.140;2022-12-10T17:08:31;12.20;83.60
62853;DHT22;49205;44.868;38.140;2022-12-10T17:11:00;12.20;83.50
62853;DHT22;49205;44.868;38.140;2022-12-10T17:13:47;12.30;83.60
62853;DHT22;49205;44.868;38.140;2022-12-10T17:16:19;12.30;83.40
62853;DHT22;49205;44.868;38.140;2022-12-10T17:18:49;12.30;83.10
62853;DHT22;49205;44.868;38.140;2022-12-10T17:21:18;12.30;82.90
62853;DHT22;49205;44.868;38.140;2022-12-10T17:23:49;12.40;83.10